Reno, NV (89595)

3:07 AM PDT on October 22, 2014 (GMT -0700)
MesoWest RENO RAIL YARD NV US NV DOT | Change Station
CLOSE
Current Station
Personal Weather Station
Location: Reno, NV
Elevation: 4460 ft
Nearby Weather Stations

Elev 4460 ft 39.53 °N, 119.79 °W | Updated 17 hours ago

Partly Cloudy
Partly Cloudy
41 °F
Feels Like 41 °F
N
5
Wind Variable Wind from WSW
Gusts 7 mph

Today
High -- | Low -- °F
--% Chance of Precip.
Yesterday
High -- | Low -- °F
Precip. -- in
7:16 AM 6:09 PM
Waning Crescent, 2% visible
Pressure 30.05 in
Visibility 10.0 miles
Clouds Scattered Clouds 20000 ft
Dew Point 27 °F
Humidity 57%
Rainfall -999.00 in
Snow Depth Not available.
UV 0 out of 12
Pollen 1.90 out of 12
Air Quality Not available.
Flu Activity Not available.
METAR KRNO 220955Z 28003KT 10SM SCT200 07/M01 A3012 RMK AO2 SLP174 T00671011

More Conditions Fewer Conditions

Pressure 30.05 in
Visibility 10.0 miles
Clouds Scattered Clouds 20000 ft
Dew Point 27 °F
Humidity 57%
Rainfall -999.00 in
Snow Depth Not available.
UV 0 out of 12
Pollen 1.90 out of 12
Air Quality Not available.
Flu Activity Not available.
METAR KRNO 220955Z 28003KT 10SM SCT200 07/M01 A3012 RMK AO2 SLP174 T00671011

More Conditions Fewer Conditions

10-Day Weather Forecast

Almanac

Astronomy

Oct. 22, 2014 Rise Set
Actual Time 7:16 AM PDT 6:09 PM PDT
Civil Twilight 6:49 AM PDT 6:37 PM PDT
Nautical Twilight 6:17 AM PDT 7:08 PM PDT
Astronomical Twilight 5:46 AM PDT 7:39 PM PDT
Moon 6:03 AM PDT 5:39 PM PDT
Length of Visible Light 11h 48m
Length of Day
10h 53m
Tomorrow will be 2m 25s shorter.
Waning Crescent, 2% of the Moon is Illuminated
Today
Waning Crescent
Oct 23
New
Oct 30
First Quarter
Nov 6
Full
Nov 14
Last Quarter

Today's Extremes

State Highs State Lows

Community

WunderPhotos

Upload Photos

1,763,901 photos uploaded!

Nearby

Snow Depth

Station Depth Elevation
Big Meadow 0 in 8300 ft
Mt. Rose Ski Area 1 in 8850 ft
Marlette Lake 1 in 8000 ft
Big Creek Summit 1 in 8700 ft
Lewis Peak 1 in 7400 ft

Earthquake Activity

City Distance Mag. Time & Date
Dixon Lane-Meadow Creek, California 153 miles 2.6 5:32 PM PDT
2014-10-18
Minimum magnitude displayed is 2.5.

Coastal Water Temperatures

Place Temperature
No Stations Reporting

Nearby Weather Stations